createdAt,value
2022-09-10T00:00:29.665Z,18.60
2022-09-10T00:02:55.687Z,18.50
2022-09-10T00:05:21.659Z,18.40
2022-09-10T00:07:48.555Z,18.50
2022-09-10T00:10:14.511Z,18.70
2022-09-10T00:12:40.434Z,18.80
2022-09-10T00:15:06.445Z,18.50
2022-09-10T00:17:32.383Z,18.40
2022-09-10T00:19:58.349Z,18.50
2022-09-10T00:22:25.074Z,18.70
2022-09-10T00:24:51.084Z,18.80
2022-09-10T00:27:17.020Z,18.20
2022-09-10T00:29:42.979Z,18.30
2022-09-10T00:32:09.873Z,18.60
2022-09-10T00:34:35.871Z,18.80
2022-09-10T00:37:01.837Z,18.80
2022-09-10T00:39:28.510Z,18.80
2022-09-10T00:41:54.489Z,18.80
2022-09-10T00:44:21.327Z,18.40
2022-09-10T00:46:47.935Z,18.10
2022-09-10T00:49:14.500Z,18.10
2022-09-10T00:51:40.498Z,18.00
2022-09-10T00:54:06.748Z,18.00
2022-09-10T00:56:32.728Z,18.40
2022-09-10T00:58:58.660Z,18.60
2022-09-10T01:01:24.612Z,18.70
2022-09-10T01:03:50.905Z,18.70
2022-09-10T01:06:17.546Z,18.60
2022-09-10T01:08:43.471Z,18.60
2022-09-10T01:11:09.416Z,18.70
2022-09-10T01:13:35.372Z,18.50
2022-09-10T01:16:02.117Z,18.60
2022-09-10T01:18:28.107Z,18.60
2022-09-10T01:20:54.048Z,18.40
2022-09-10T01:23:20.063Z,18.30
2022-09-10T01:25:46.240Z,18.20
2022-09-10T01:28:12.663Z,18.20
2022-09-10T01:30:38.699Z,18.20
2022-09-10T01:33:05.350Z,18.40
2022-09-10T01:35:32.236Z,18.40
2022-09-10T01:37:58.168Z,18.50
2022-09-10T01:40:24.616Z,18.60
2022-09-10T01:42:50.577Z,18.60
2022-09-10T01:45:17.195Z,18.60
2022-09-10T01:47:43.157Z,18.50
2022-09-10T01:50:09.093Z,18.30
2022-09-10T01:52:35.121Z,18.30
2022-09-10T01:55:01.692Z,18.10
2022-09-10T01:57:27.647Z,18.10
2022-09-10T01:59:53.933Z,18.00
2022-09-10T02:02:21.457Z,18.40
2022-09-10T02:10:08.578Z,18.40
2022-09-10T02:12:34.735Z,18.50
2022-09-10T04:10:10.739Z,17.60
2022-09-10T04:12:37.426Z,17.70
2022-09-10T04:15:03.368Z,17.60
2022-09-10T04:17:29.971Z,17.60
2022-09-10T04:19:55.923Z,17.60
2022-09-10T04:22:21.884Z,17.70
2022-09-10T04:24:47.818Z,17.70
2022-09-10T04:27:13.789Z,17.70
2022-09-10T04:29:39.755Z,17.30
2022-09-10T04:32:05.807Z,17.30
2022-09-10T04:34:31.764Z,17.40
2022-09-10T04:36:58.130Z,17.50
2022-09-10T04:39:24.107Z,17.30
2022-09-10T04:41:50.062Z,17.10
2022-09-10T04:44:16.916Z,17.10
2022-09-10T04:46:43.584Z,17.00
2022-09-10T04:49:09.602Z,17.10
2022-09-10T04:51:35.556Z,17.30
2022-09-10T04:54:02.237Z,17.30
2022-09-10T04:56:28.249Z,17.40
2022-09-10T04:58:54.220Z,17.30
2022-09-10T05:01:20.922Z,17.20
2022-09-10T05:03:46.936Z,17.20
2022-09-10T05:06:12.891Z,17.20
2022-09-10T05:08:39.536Z,17.00
2022-09-10T05:11:05.515Z,16.70
2022-09-10T05:13:31.455Z,16.80
2022-09-10T05:15:57.391Z,16.80
2022-09-10T05:18:24.226Z,17.10
2022-09-10T05:20:50.174Z,17.30
2022-09-10T05:23:16.123Z,17.40
2022-09-10T05:25:42.809Z,17.50
2022-09-10T05:28:08.790Z,17.50
2022-09-10T05:30:34.801Z,17.10
2022-09-10T05:33:00.733Z,17.30
2022-09-10T05:35:27.557Z,17.50
2022-09-10T05:37:53.822Z,17.60
2022-09-10T05:40:19.789Z,17.70
2022-09-10T05:42:45.770Z,17.60
2022-09-10T05:45:11.732Z,17.60
2022-09-10T05:47:37.678Z,17.80
2022-09-10T05:50:03.610Z,17.70
2022-09-10T05:52:29.584Z,17.90
2022-09-10T05:54:55.511Z,18.00
2022-09-10T05:57:21.486Z,18.10
2022-09-10T05:59:48.114Z,18.20
2022-09-10T06:02:14.088Z,18.30
2022-09-10T06:04:40.112Z,18.40
2022-09-10T06:07:06.044Z,18.50
2022-09-10T06:09:32.028Z,18.60
2022-09-10T06:11:58.004Z,18.80
2022-09-10T06:14:24.661Z,18.80
2022-09-10T06:16:50.641Z,18.50
2022-09-10T06:19:16.628Z,18.50
2022-09-10T06:21:43.296Z,18.70
2022-09-10T06:24:09.257Z,18.90
2022-09-10T06:26:35.238Z,19.10
2022-09-10T06:29:01.235Z,18.90
2022-09-10T06:31:27.173Z,19.10
2022-09-10T06:33:53.143Z,19.20
2022-09-10T06:36:19.096Z,19.20
2022-09-10T06:38:45.093Z,19.30
2022-09-10T06:41:11.055Z,19.30
2022-09-10T06:43:37.701Z,19.40
2022-09-10T06:46:03.749Z,18.80
2022-09-10T06:48:38.561Z,18.90
2022-09-10T06:51:06.226Z,19.20
2022-09-10T06:53:32.503Z,19.50
2022-09-10T06:55:59.854Z,19.40
2022-09-10T06:58:26.216Z,18.90
2022-09-10T07:00:52.363Z,18.90
2022-09-10T07:11:20.472Z,19.20
2022-09-10T09:08:09.417Z,22.80
2022-09-10T09:10:35.375Z,23.00
2022-09-10T09:13:02.089Z,22.90
2022-09-10T09:15:28.153Z,23.00
2022-09-10T09:17:54.141Z,22.60
2022-09-10T09:20:20.136Z,22.50
2022-09-10T09:22:46.992Z,22.50
2022-09-10T09:25:12.988Z,23.00
2022-09-10T09:27:38.931Z,22.70
2022-09-10T09:30:05.613Z,22.70
2022-09-10T09:32:31.593Z,23.30
2022-09-10T09:34:57.546Z,23.50
2022-09-10T09:37:23.517Z,23.30
2022-09-10T09:39:49.502Z,23.70
2022-09-10T09:42:15.476Z,23.80
2022-09-10T09:44:41.456Z,23.90
2022-09-10T09:47:07.381Z,23.70
2022-09-10T09:49:33.351Z,24.00
2022-09-10T09:51:59.283Z,24.10
2022-09-10T09:57:11.187Z,23.80
2022-09-10T09:59:37.133Z,24.10
2022-09-10T10:02:04.032Z,24.10
2022-09-10T10:04:30.835Z,24.40
2022-09-10T10:06:56.901Z,24.70
2022-09-10T10:09:22.857Z,25.10
2022-09-10T10:11:49.505Z,25.20
2022-09-10T10:14:15.477Z,25.00
2022-09-10T10:16:42.173Z,25.00
2022-09-10T10:19:08.143Z,24.80
2022-09-10T10:21:34.133Z,25.10
2022-09-10T10:24:00.108Z,25.60
2022-09-10T10:29:10.374Z,25.60
2022-09-10T10:31:36.382Z,25.70
2022-09-10T10:34:02.332Z,25.40
2022-09-10T10:36:28.513Z,25.30
2022-09-10T10:38:54.445Z,25.10
2022-09-10T10:41:20.407Z,25.10
2022-09-10T10:43:46.375Z,25.30
2022-09-10T10:46:12.358Z,25.30
2022-09-10T10:48:38.445Z,26.00
2022-09-10T10:51:04.414Z,26.40
2022-09-10T10:53:31.150Z,26.20
2022-09-10T10:55:57.220Z,25.70
2022-09-10T10:58:23.150Z,25.80
2022-09-10T11:00:50.053Z,25.90
2022-09-10T11:03:15.999Z,26.40
2022-09-10T11:05:41.970Z,26.70
2022-09-10T11:08:07.901Z,26.50
2022-09-10T11:10:33.866Z,27.00
2022-09-10T11:12:59.795Z,27.70
2022-09-10T11:15:25.776Z,27.70
2022-09-10T11:17:51.750Z,27.60
2022-09-10T11:20:28.490Z,27.40
2022-09-10T11:22:55.219Z,27.20
2022-09-10T11:25:21.926Z,27.10
2022-09-10T11:27:47.949Z,26.60
2022-09-10T11:30:13.892Z,26.80
2022-09-10T11:32:39.835Z,26.60
2022-09-10T11:35:05.803Z,26.50
2022-09-10T11:37:32.720Z,26.40
2022-09-10T11:39:58.758Z,26.90
2022-09-10T11:42:24.766Z,27.10
2022-09-10T11:44:50.722Z,27.00
2022-09-10T11:47:18.050Z,27.10
2022-09-10T11:49:44.484Z,27.10
2022-09-10T11:52:10.708Z,27.00
2022-09-10T11:54:37.935Z,27.20
2022-09-10T11:57:04.179Z,27.10
2022-09-10T12:02:11.045Z,26.80
2022-09-10T14:02:23.497Z,24.10
2022-09-10T14:04:50.204Z,24.10
2022-09-10T14:07:16.193Z,24.00
2022-09-10T14:09:42.133Z,24.00
2022-09-10T14:12:08.844Z,23.90
2022-09-10T14:14:34.839Z,23.80
2022-09-10T14:17:00.773Z,24.00
2022-09-10T14:19:27.563Z,23.60
2022-09-10T14:21:53.513Z,23.80
2022-09-10T14:24:19.445Z,23.80
2022-09-10T14:26:45.566Z,23.90
2022-09-10T14:29:11.632Z,23.90
2022-09-10T14:31:37.608Z,23.70
2022-09-10T14:34:03.545Z,23.60
2022-09-10T14:36:29.506Z,23.70
2022-09-10T14:38:56.195Z,23.40
2022-09-10T14:41:22.160Z,23.60
2022-09-10T14:43:48.122Z,23.60
2022-09-10T14:46:14.103Z,23.40
2022-09-10T14:48:40.151Z,23.20
2022-09-10T14:51:06.485Z,23.30
2022-09-10T14:53:33.317Z,23.20
2022-09-10T14:55:59.326Z,23.20
2022-09-10T14:58:25.457Z,23.30
2022-09-10T15:00:52.174Z,23.10
2022-09-10T15:03:18.161Z,23.00
2022-09-10T15:05:44.130Z,23.00
2022-09-10T15:08:10.792Z,23.00
2022-09-10T15:10:36.750Z,22.80
2022-09-10T15:13:02.714Z,22.40
2022-09-10T15:15:29.356Z,22.30
2022-09-10T15:17:56.214Z,21.70
2022-09-10T15:20:27.173Z,21.50
2022-09-10T15:22:53.874Z,21.90
2022-09-10T15:25:20.589Z,22.00
2022-09-10T15:27:46.519Z,22.10
2022-09-10T15:30:12.477Z,22.00
2022-09-10T15:32:39.046Z,22.40
2022-09-10T15:35:05.006Z,22.60
2022-09-10T15:37:30.994Z,22.70
2022-09-10T15:39:57.046Z,22.80
2022-09-10T15:42:23.070Z,22.90
2022-09-10T15:44:49.022Z,22.70
2022-09-10T15:47:14.975Z,22.70
2022-09-10T15:49:41.653Z,22.50
2022-09-10T15:52:07.607Z,22.60
2022-09-10T15:54:33.580Z,22.60
2022-09-10T15:56:59.530Z,22.80
2022-09-10T15:59:26.562Z,22.70
2022-09-10T16:01:52.572Z,22.80
2022-09-10T16:04:18.538Z,22.60
2022-09-10T16:06:45.447Z,22.50
2022-09-10T16:09:11.454Z,22.40
2022-09-10T16:11:38.073Z,22.30
2022-09-10T16:14:04.820Z,22.20
2022-09-10T16:16:30.887Z,22.10
2022-09-10T16:18:57.511Z,22.30
2022-09-10T16:21:23.441Z,22.20
2022-09-10T16:23:49.397Z,22.40
2022-09-10T16:26:15.323Z,22.60
2022-09-10T16:28:41.406Z,22.50
2022-09-10T16:31:08.236Z,22.00
2022-09-10T16:33:34.230Z,21.60
2022-09-10T16:36:00.227Z,21.60
2022-09-10T16:38:26.806Z,21.70
2022-09-10T16:40:52.808Z,21.80
2022-09-10T16:43:19.075Z,22.00
2022-09-10T16:45:46.653Z,22.10
2022-09-10T16:48:12.874Z,22.10
2022-09-10T16:50:40.267Z,22.10
2022-09-10T16:53:11.419Z,22.30
2022-09-10T16:55:38.053Z,22.30
2022-09-10T18:55:21.107Z,20.10
2022-09-10T18:57:47.071Z,19.70
2022-09-10T19:00:13.197Z,19.80
2022-09-10T19:02:39.285Z,19.70
2022-09-10T19:05:11.573Z,19.40
2022-09-10T19:07:37.909Z,19.20
2022-09-10T19:10:04.437Z,19.50
2022-09-10T19:12:31.481Z,19.60
2022-09-10T19:14:57.432Z,19.40
2022-09-10T19:17:23.372Z,19.50
2022-09-10T19:19:50.296Z,19.50
2022-09-10T19:22:16.288Z,19.20
2022-09-10T19:24:58.703Z,19.10
2022-09-10T19:27:24.655Z,19.20
2022-09-10T19:29:51.482Z,18.80
2022-09-10T19:32:17.473Z,18.90
2022-09-10T19:34:43.450Z,18.70
2022-09-10T19:37:09.403Z,19.00
2022-09-10T19:39:36.023Z,18.60
2022-09-10T19:42:02.005Z,18.70
2022-09-10T19:44:28.010Z,18.50
2022-09-10T19:46:54.800Z,18.50
2022-09-10T19:49:20.757Z,18.70
2022-09-10T19:51:46.752Z,18.80
2022-09-10T19:54:13.364Z,18.90
2022-09-10T19:56:39.353Z,18.90
2022-09-10T19:59:05.318Z,18.80
2022-09-10T20:01:31.416Z,18.80
2022-09-10T20:03:57.410Z,18.70
2022-09-10T20:06:24.209Z,18.40
2022-09-10T20:08:50.163Z,18.10
2022-09-10T20:11:16.152Z,18.30
2022-09-10T20:13:42.846Z,18.50
2022-09-10T20:16:08.820Z,18.50
2022-09-10T20:18:35.675Z,18.50
2022-09-10T20:21:01.627Z,18.20
2022-09-10T20:23:27.595Z,18.00
2022-09-10T20:25:53.532Z,18.20
2022-09-10T20:28:19.481Z,18.30
2022-09-10T20:30:46.376Z,18.10
2022-09-10T20:33:12.357Z,17.70
2022-09-10T20:35:38.326Z,17.70
2022-09-10T20:38:05.018Z,17.60
2022-09-10T20:40:31.008Z,17.80
2022-09-10T20:42:56.945Z,18.10
2022-09-10T20:45:22.963Z,18.10
2022-09-10T20:47:48.947Z,17.80
2022-09-10T20:50:14.885Z,17.60
2022-09-10T20:52:40.849Z,17.70
2022-09-10T20:55:06.804Z,17.60
2022-09-10T20:57:33.557Z,17.70
2022-09-10T21:00:02.232Z,17.50
2022-09-10T21:02:29.131Z,17.70
2022-09-10T21:04:55.110Z,17.50
2022-09-10T21:07:21.433Z,17.40
2022-09-10T21:09:48.040Z,17.50
2022-09-10T21:12:13.998Z,17.50
2022-09-10T21:14:40.584Z,17.30
2022-09-10T21:17:06.551Z,17.10
2022-09-10T21:19:32.508Z,17.00
2022-09-10T21:21:58.452Z,17.20
2022-09-10T21:24:24.418Z,17.30
2022-09-10T21:26:50.346Z,17.10
2022-09-10T21:29:16.335Z,17.30
2022-09-10T21:31:42.310Z,17.40
2022-09-10T21:34:09.197Z,17.40
2022-09-10T21:36:35.492Z,17.30
2022-09-10T21:39:01.788Z,17.40
2022-09-10T21:41:28.513Z,17.40
2022-09-10T21:43:54.780Z,17.40
2022-09-10T21:49:01.319Z,17.30
